Airfield :
LOGIN :

Register | Disclaimer

   EN    FR    IT 

 










Legend :    VFR   Marginal VFR   IFR   Intensive IFR   Very Intensive IFR
Visi :
Ceiling :
>= 8 km
>= 3000ft
5 to 8 km
1000 to 3000 ft
1500m to 5 km
500 to 1000 ft
800 to 1500m
200 to 500 ft
< 800m
< 200 ft
Symbols :   Thunderstorms  Fog  Heavy snow  Heavy precipitations  Wind > 20 kt
SIGMETs :     Misc.  Thunderstorms  Icing  Turbulence  Mountain Waves  Volcanic Ashes






- Airport Elevation : 485 ft
- IATA code : QSA


LELL - Sabadell

CURRENT METAR :
  • 030100Z AUTO 29003KT 8000 NSC 10/09 Q1031

EXPIRED METARs :
  • 030030Z AUTO 00000KT CAVOK 11/09 Q1031
  • 030000Z AUTO VRB02KT CAVOK 11/09 Q1031
  • 022330Z AUTO VRB02KT 9000 NSC 11/09 Q1031
  • 022300Z AUTO VRB01KT 8000 NSC 10/09 Q1031
  • 022230Z AUTO VRB02KT CAVOK 12/09 Q1031

TAF TAF LELL
Valid from the 02 at 15:00 until the 03 at 15:00 UTC


021400Z 0215/0315 07009KT 9999 SCT025 BKN040 TX17/0313Z TN07/0306Z
TEMPO 0215/0217 10010G20KT
BECMG 0220/0222 VRB04KT
PROB40
TEMPO 0223/0307 3000 BR BKN010



MET'MAP, your aeronautical weather chart ! - Copyright ORBIFLY December 2007 - Disclaimer

ORBIFLY MET'MAP TEAM :

Programming & Development : Alexandra Zaïnal
Concept & original design : Baudouin d'Aumeries
Assistance for programming : Marc-Olivier Méhu
Technical & hardware support : Manuel Goepfert

Contact : metmap@orbifly.com




SOURCES & CREDITS :

   NOAA